createdAt,value
2019-05-28T00:01:54.030Z,4.40
2019-05-28T00:04:22.585Z,4.40
2019-05-28T00:06:51.108Z,4.87
2019-05-28T00:09:19.657Z,5.17
2019-05-28T00:11:48.208Z,4.63
2019-05-28T00:14:16.763Z,4.77
2019-05-28T00:16:45.268Z,3.73
2019-05-28T00:19:13.764Z,6.00
2019-05-28T00:21:42.310Z,5.80
2019-05-28T00:24:11.087Z,3.70
2019-05-28T00:26:39.609Z,4.20
2019-05-28T00:29:08.757Z,4.63
2019-05-28T00:31:37.269Z,4.87
2019-05-28T00:34:05.814Z,6.00
2019-05-28T00:36:34.337Z,4.97
2019-05-28T00:39:03.096Z,5.97
2019-05-28T00:41:31.624Z,6.83
2019-05-28T00:44:00.142Z,6.97
2019-05-28T00:46:28.616Z,4.53
2019-05-28T00:48:57.508Z,4.60
2019-05-28T00:51:26.067Z,9.33
2019-05-28T00:53:54.574Z,4.37
2019-05-28T00:56:23.336Z,5.30
2019-05-28T00:58:52.573Z,4.13
2019-05-28T01:01:21.062Z,5.47
2019-05-28T01:03:49.590Z,5.07
2019-05-28T01:06:18.105Z,4.67
2019-05-28T01:08:46.596Z,4.47
2019-05-28T01:11:15.120Z,4.30
2019-05-28T01:13:43.644Z,5.17
2019-05-28T01:16:12.210Z,5.93
2019-05-28T01:18:40.694Z,4.97
2019-05-28T01:21:09.193Z,4.70
2019-05-28T01:23:37.701Z,4.27
2019-05-28T01:26:06.185Z,4.17
2019-05-28T01:28:34.669Z,4.63
2019-05-28T01:31:03.172Z,4.83
2019-05-28T01:33:31.671Z,4.20
2019-05-28T01:36:00.185Z,4.40
2019-05-28T01:38:28.678Z,4.63
2019-05-28T01:40:57.151Z,7.17
2019-05-28T01:43:25.701Z,4.30
2019-05-28T01:45:54.204Z,4.97
2019-05-28T01:48:22.697Z,5.53
2019-05-28T01:50:51.225Z,5.87
2019-05-28T01:53:19.738Z,6.07
2019-05-28T01:55:48.227Z,5.27
2019-05-28T01:58:16.748Z,6.50
2019-05-28T02:00:46.484Z,7.40
2019-05-28T02:03:14.971Z,5.90
2019-05-28T02:05:43.588Z,5.70
2019-05-28T02:08:12.093Z,7.87
2019-05-28T02:10:40.586Z,5.63
2019-05-28T02:13:09.116Z,5.73
2019-05-28T02:15:37.592Z,5.33
2019-05-28T02:18:06.145Z,6.53
2019-05-28T02:20:34.642Z,6.10
2019-05-28T02:23:03.132Z,6.03
2019-05-28T02:25:31.623Z,4.60
2019-05-28T02:28:00.126Z,5.13
2019-05-28T02:30:28.869Z,4.97
2019-05-28T02:32:57.391Z,5.17
2019-05-28T02:35:26.038Z,4.97
2019-05-28T02:37:54.540Z,4.57
2019-05-28T02:40:23.810Z,5.30
2019-05-28T02:42:52.314Z,5.37
2019-05-28T02:45:21.118Z,5.37
2019-05-28T02:47:49.650Z,6.10
2019-05-28T02:50:21.229Z,5.30
2019-05-28T02:52:50.171Z,6.07
2019-05-28T02:55:19.027Z,5.20
2019-05-28T02:57:49.947Z,6.17
2019-05-28T03:00:19.917Z,5.07
2019-05-28T03:02:49.077Z,5.27
2019-05-28T03:05:18.231Z,7.33
2019-05-28T03:07:48.010Z,6.70
2019-05-28T03:10:19.684Z,6.10
2019-05-28T03:12:48.224Z,7.20
2019-05-28T03:15:16.832Z,7.03
2019-05-28T03:17:46.993Z,8.83
2019-05-28T03:20:15.963Z,6.90
2019-05-28T03:22:45.699Z,7.37
2019-05-28T03:25:14.423Z,6.10
2019-05-28T03:27:42.904Z,6.63
2019-05-28T03:30:12.085Z,5.83
2019-05-28T03:32:40.585Z,7.23
2019-05-28T03:35:09.226Z,5.63
2019-05-28T03:37:39.871Z,7.13
2019-05-28T03:40:11.451Z,5.83
2019-05-28T03:42:39.962Z,9.03
2019-05-28T03:45:08.726Z,6.20
2019-05-28T03:47:37.212Z,8.03
2019-05-28T03:50:07.404Z,5.90
2019-05-28T03:52:35.914Z,7.97
2019-05-28T03:55:08.780Z,6.27
2019-05-28T03:57:37.290Z,7.97
2019-05-28T04:00:06.561Z,6.20
2019-05-28T04:02:35.066Z,8.90
2019-05-28T04:05:03.740Z,8.33
2019-05-28T04:07:32.283Z,6.43
2019-05-28T04:10:00.769Z,6.50
2019-05-28T04:12:29.286Z,9.13
2019-05-28T04:14:57.803Z,6.67
2019-05-28T04:17:26.395Z,8.03
2019-05-28T04:19:54.899Z,7.93
2019-05-28T04:22:23.387Z,9.37
2019-05-28T04:24:51.916Z,7.97
2019-05-28T04:27:20.435Z,8.57
2019-05-28T04:29:48.943Z,9.43
2019-05-28T04:32:17.505Z,7.93
2019-05-28T04:34:46.097Z,8.60
2019-05-28T04:37:14.711Z,7.50
2019-05-28T04:39:43.186Z,8.67
2019-05-28T04:42:11.756Z,8.67
2019-05-28T04:44:40.289Z,7.90
2019-05-28T04:47:09.127Z,7.67
2019-05-28T04:49:37.724Z,7.83
2019-05-28T04:52:06.325Z,8.67
2019-05-28T04:54:34.810Z,8.23
2019-05-28T04:57:03.893Z,8.70
2019-05-28T04:59:32.382Z,7.10
2019-05-28T05:02:00.922Z,7.20
2019-05-28T05:04:29.427Z,7.13
2019-05-28T05:06:57.919Z,7.20
2019-05-28T05:09:26.481Z,7.20
2019-05-28T05:11:55.019Z,7.10
2019-05-28T05:14:23.506Z,9.10
2019-05-28T05:16:52.013Z,7.33
2019-05-28T05:19:20.536Z,9.13
2019-05-28T05:21:49.016Z,7.40
2019-05-28T05:24:17.633Z,7.53
2019-05-28T05:26:46.180Z,7.67
2019-05-28T05:29:14.667Z,14.43
2019-05-28T05:31:43.210Z,18.57
2019-05-28T05:34:11.726Z,7.93
2019-05-28T05:36:40.260Z,8.07
2019-05-28T05:39:09.399Z,8.77
2019-05-28T05:41:38.051Z,7.77
2019-05-28T05:44:06.545Z,10.40
2019-05-28T05:46:35.053Z,11.23
2019-05-28T05:49:03.573Z,9.87
2019-05-28T05:51:32.088Z,8.20
2019-05-28T05:54:00.574Z,8.37
2019-05-28T05:56:29.075Z,6.60
2019-05-28T05:58:57.585Z,6.17
2019-05-28T06:01:26.095Z,4.50
2019-05-28T06:03:54.623Z,4.83
2019-05-28T06:06:23.119Z,4.77
2019-05-28T06:08:51.602Z,5.40
2019-05-28T06:11:20.120Z,7.33
2019-05-28T06:13:48.593Z,5.67
2019-05-28T06:16:17.087Z,5.47
2019-05-28T06:18:45.627Z,4.90
2019-05-28T06:21:18.220Z,2.90
2019-05-28T06:23:44.367Z,2.63
2019-05-28T06:26:13.119Z,2.97
2019-05-28T06:28:41.699Z,2.37
2019-05-28T06:31:10.204Z,3.13
2019-05-28T06:33:53.421Z,2.73
2019-05-28T06:36:08.958Z,2.00
2019-05-28T06:38:37.464Z,3.77
2019-05-28T06:41:06.029Z,4.20
2019-05-28T06:43:34.532Z,4.13
2019-05-28T06:46:03.072Z,2.40
2019-05-28T06:48:31.635Z,1.90
2019-05-28T06:51:00.144Z,3.40
2019-05-28T06:53:28.676Z,2.10
2019-05-28T06:55:57.201Z,5.27
2019-05-28T06:58:38.956Z,2.00
2019-05-28T07:00:56.029Z,1.47
2019-05-28T07:03:24.528Z,4.07
2019-05-28T07:06:06.631Z,1.60
2019-05-28T07:08:23.359Z,2.07
2019-05-28T07:10:57.830Z,1.77
2019-05-28T07:13:22.115Z,4.37
2019-05-28T07:15:50.630Z,3.83
2019-05-28T07:18:19.135Z,4.07
2019-05-28T07:20:47.635Z,2.10
2019-05-28T07:23:16.126Z,2.07
2019-05-28T07:25:44.650Z,3.37
2019-05-28T07:28:13.189Z,2.00
2019-05-28T07:30:41.677Z,2.20
2019-05-28T07:33:10.184Z,2.53
2019-05-28T07:35:45.861Z,3.50
2019-05-28T07:38:08.853Z,2.17
2019-05-28T07:40:37.316Z,3.10
2019-05-28T07:43:05.826Z,2.73
2019-05-28T07:45:34.342Z,2.57
2019-05-28T07:48:02.941Z,3.50
2019-05-28T07:50:31.440Z,2.73
2019-05-28T07:52:59.950Z,7.27
2019-05-28T07:55:28.545Z,3.53
2019-05-28T07:57:57.059Z,3.10
2019-05-28T08:00:40.312Z,3.73
2019-05-28T08:03:09.327Z,4.63
2019-05-28T08:05:38.000Z,3.53
2019-05-28T08:08:08.975Z,3.73
2019-05-28T08:10:37.711Z,4.83
2019-05-28T08:13:07.830Z,4.73
2019-05-28T08:15:36.646Z,3.50
2019-05-28T08:18:05.877Z,4.83
2019-05-28T08:20:34.713Z,5.30
2019-05-28T08:23:03.383Z,4.60
2019-05-28T08:25:45.976Z,5.07
2019-05-28T08:28:18.862Z,5.00
2019-05-28T08:30:32.550Z,4.53
2019-05-28T08:33:01.058Z,5.10
2019-05-28T08:35:29.553Z,4.03
2019-05-28T08:37:58.131Z,5.63
2019-05-28T08:40:26.763Z,3.97
2019-05-28T08:42:55.395Z,4.63
2019-05-28T08:45:23.969Z,5.37
2019-05-28T08:47:52.551Z,4.37
2019-05-28T08:50:33.762Z,4.60
2019-05-28T08:52:51.381Z,5.17
2019-05-28T08:55:19.880Z,5.70
2019-05-28T08:57:48.369Z,4.57
2019-05-28T09:00:19.926Z,5.90
2019-05-28T09:02:48.406Z,4.70
2019-05-28T09:05:26.495Z,5.50
2019-05-28T09:07:47.882Z,4.90
2019-05-28T09:10:16.392Z,4.50
2019-05-28T09:12:44.894Z,5.20
2019-05-28T09:15:13.571Z,5.33
2019-05-28T09:17:42.115Z,5.87
2019-05-28T09:20:11.185Z,6.23
2019-05-28T09:22:39.643Z,5.40
2019-05-28T09:25:08.278Z,4.40
2019-05-28T09:27:36.939Z,7.40
2019-05-28T09:30:10.663Z,6.63
2019-05-28T09:32:39.199Z,7.77
2019-05-28T09:35:08.818Z,6.57
2019-05-28T09:37:37.470Z,5.23
2019-05-28T09:40:06.809Z,4.67
2019-05-28T09:42:35.342Z,4.73
2019-05-28T09:45:21.352Z,5.13
2019-05-28T09:47:35.041Z,4.60
2019-05-28T09:50:27.108Z,5.23
2019-05-28T09:52:53.087Z,3.50
2019-05-28T09:55:08.696Z,4.43
2019-05-28T09:57:46.869Z,2.17
2019-05-28T10:00:10.522Z,2.00
2019-05-28T10:02:39.166Z,1.90
2019-05-28T10:05:08.107Z,3.87
2019-05-28T10:07:36.616Z,1.70
2019-05-28T10:10:08.268Z,1.53
2019-05-28T10:12:36.901Z,3.27
2019-05-28T10:15:09.525Z,3.00
2019-05-28T10:17:38.061Z,1.40
2019-05-28T10:20:07.507Z,1.63
2019-05-28T10:22:36.054Z,1.47
2019-05-28T10:25:07.356Z,1.27
2019-05-28T10:27:35.918Z,1.83
2019-05-28T10:30:07.614Z,1.40
2019-05-28T10:32:36.091Z,1.10
2019-05-28T10:35:06.984Z,1.63
2019-05-28T10:37:35.593Z,1.97
2019-05-28T10:40:07.011Z,0.83
2019-05-28T10:42:35.536Z,1.20
2019-05-28T10:45:06.991Z,1.57
2019-05-28T10:47:35.560Z,1.37
2019-05-28T10:50:04.605Z,0.83
2019-05-28T10:52:33.198Z,0.93
2019-05-28T10:55:02.849Z,0.67
2019-05-28T10:57:31.478Z,1.30
2019-05-28T11:00:00.013Z,1.07
2019-05-28T11:02:28.539Z,1.53
2019-05-28T11:04:57.190Z,0.77
2019-05-28T11:07:25.702Z,1.13
2019-05-28T11:09:54.219Z,0.57
2019-05-28T11:12:22.732Z,0.83
2019-05-28T11:14:51.272Z,0.70
2019-05-28T11:17:19.784Z,0.90
2019-05-28T11:19:48.295Z,1.30
2019-05-28T11:22:16.831Z,1.63
2019-05-28T11:24:45.323Z,1.33
2019-05-28T11:27:13.922Z,0.97
2019-05-28T11:29:42.462Z,1.07
2019-05-28T11:32:11.014Z,0.70
2019-05-28T11:34:39.542Z,0.80
2019-05-28T11:37:09.953Z,1.17
2019-05-28T11:39:38.365Z,0.80
2019-05-28T11:42:06.926Z,0.70
2019-05-28T11:44:35.504Z,0.60
2019-05-28T11:47:04.179Z,2.43
2019-05-28T11:49:32.637Z,0.67
2019-05-28T11:52:01.138Z,0.90
2019-05-28T11:54:29.641Z,4.53
2019-05-28T11:56:58.116Z,1.13
2019-05-28T11:59:26.629Z,1.10
2019-05-28T12:01:55.102Z,1.33
2019-05-28T12:04:23.599Z,1.10
2019-05-28T12:06:52.102Z,1.33
2019-05-28T12:09:20.572Z,0.90
2019-05-28T12:11:49.087Z,0.87
2019-05-28T12:14:17.585Z,0.60
2019-05-28T12:16:46.111Z,0.93
2019-05-28T12:19:14.594Z,0.80
2019-05-28T12:21:43.090Z,0.90
2019-05-28T12:24:11.577Z,0.70
2019-05-28T12:26:40.069Z,0.60
2019-05-28T12:29:08.544Z,1.40
2019-05-28T12:31:37.025Z,1.27
2019-05-28T12:34:05.598Z,0.57
2019-05-28T12:36:34.266Z,0.70
2019-05-28T12:39:02.721Z,0.93
2019-05-28T12:41:31.208Z,0.70
2019-05-28T12:43:59.757Z,0.70
2019-05-28T12:46:28.248Z,0.70
2019-05-28T12:48:56.753Z,0.70
2019-05-28T12:51:25.221Z,1.17
2019-05-28T12:53:53.775Z,0.80
2019-05-28T12:56:22.291Z,0.60
2019-05-28T12:58:50.800Z,1.57
2019-05-28T13:01:19.368Z,1.30
2019-05-28T13:03:51.791Z,1.67
2019-05-28T13:06:18.100Z,0.90
2019-05-28T13:08:46.697Z,1.90
2019-05-28T13:11:15.170Z,0.80
2019-05-28T13:13:43.654Z,0.70
2019-05-28T13:16:12.203Z,0.60
2019-05-28T13:18:40.762Z,0.63
2019-05-28T13:21:09.253Z,0.60
2019-05-28T13:23:37.716Z,0.60
2019-05-28T13:26:06.247Z,0.93
2019-05-28T13:28:34.753Z,0.67
2019-05-28T13:31:03.240Z,0.70
2019-05-28T13:33:31.838Z,0.60
2019-05-28T13:36:00.441Z,0.60
2019-05-28T13:38:28.910Z,1.40
2019-05-28T13:40:57.455Z,0.70
2019-05-28T13:43:25.937Z,1.80
2019-05-28T13:45:54.482Z,0.97
2019-05-28T13:48:22.976Z,3.30
2019-05-28T13:50:51.485Z,2.17
2019-05-28T13:53:19.992Z,1.47
2019-05-28T13:55:48.529Z,1.43
2019-05-28T13:58:17.005Z,0.80
2019-05-28T14:00:45.502Z,2.13
2019-05-28T14:03:14.076Z,1.00
2019-05-28T14:05:42.738Z,1.50
2019-05-28T14:08:11.297Z,1.60
2019-05-28T14:10:39.801Z,0.70
2019-05-28T14:13:08.293Z,1.67
2019-05-28T14:15:36.896Z,0.90
2019-05-28T14:18:05.846Z,2.43
2019-05-28T14:20:34.690Z,1.87
2019-05-28T14:23:03.212Z,1.00
2019-05-28T14:25:31.679Z,0.97
2019-05-28T14:28:00.188Z,0.70
2019-05-28T14:30:28.751Z,0.77
2019-05-28T14:32:57.242Z,1.00
2019-05-28T14:35:25.741Z,1.90
2019-05-28T14:37:54.374Z,0.80
2019-05-28T14:40:24.577Z,0.77
2019-05-28T14:42:53.323Z,0.80
2019-05-28T14:45:22.525Z,1.10
2019-05-28T14:47:51.269Z,1.00
2019-05-28T14:50:20.080Z,5.13
2019-05-28T14:52:48.576Z,1.57
2019-05-28T14:55:18.291Z,1.00
2019-05-28T14:57:46.798Z,0.97
2019-05-28T15:00:18.016Z,4.93
2019-05-28T15:02:46.636Z,3.47
2019-05-28T15:05:15.482Z,4.60
2019-05-28T15:07:44.133Z,1.57
2019-05-28T15:10:16.571Z,0.90
2019-05-28T15:12:45.092Z,1.90
2019-05-28T15:15:15.603Z,0.97
2019-05-28T15:17:44.085Z,1.73
2019-05-28T15:20:13.713Z,0.97
2019-05-28T15:22:42.241Z,2.60
2019-05-28T15:25:10.931Z,1.97
2019-05-28T15:27:39.583Z,1.33
2019-05-28T15:30:10.703Z,1.70
2019-05-28T15:32:39.325Z,2.70
2019-05-28T15:35:09.245Z,0.80
2019-05-28T15:37:37.760Z,1.80
2019-05-28T15:40:08.949Z,1.30
2019-05-28T15:42:37.426Z,2.70
2019-05-28T15:45:10.974Z,0.90
2019-05-28T15:47:44.210Z,2.57
2019-05-28T15:50:12.174Z,1.20
2019-05-28T15:52:40.720Z,2.97
2019-05-28T15:55:10.010Z,1.20
2019-05-28T15:57:38.524Z,2.20
2019-05-28T16:00:08.491Z,1.43
2019-05-28T16:02:37.030Z,3.23
2019-05-28T16:05:07.015Z,2.07
2019-05-28T16:07:35.535Z,3.27
2019-05-28T16:10:06.067Z,2.10
2019-05-28T16:12:34.537Z,1.60
2019-05-28T16:15:03.554Z,1.67
2019-05-28T16:17:32.114Z,3.87
2019-05-28T16:20:00.605Z,1.60
2019-05-28T16:22:29.136Z,2.77
2019-05-28T16:24:57.661Z,3.20
2019-05-28T16:27:26.147Z,2.80
2019-05-28T16:29:54.689Z,1.50
2019-05-28T16:32:28.672Z,2.33
2019-05-28T16:34:53.528Z,1.60
2019-05-28T16:37:22.064Z,1.33
2019-05-28T16:39:50.585Z,1.40
2019-05-28T16:42:19.177Z,2.50
2019-05-28T16:44:47.711Z,4.13
2019-05-28T16:47:18.534Z,3.17
2019-05-28T16:49:46.491Z,2.60
2019-05-28T16:52:15.059Z,1.77
2019-05-28T16:54:43.514Z,5.33
2019-05-28T16:57:12.107Z,1.40
2019-05-28T16:59:40.613Z,2.03
2019-05-28T17:02:09.132Z,3.57
2019-05-28T17:04:37.612Z,4.03
2019-05-28T17:07:06.249Z,4.33
2019-05-28T17:09:34.731Z,3.40
2019-05-28T17:12:03.375Z,5.50
2019-05-28T17:14:31.900Z,2.20
2019-05-28T17:17:03.107Z,2.90
2019-05-28T17:19:30.633Z,4.90
2019-05-28T17:21:59.153Z,3.87
2019-05-28T17:24:27.639Z,3.83
2019-05-28T17:26:56.133Z,2.83
2019-05-28T17:29:24.658Z,3.00
2019-05-28T17:31:53.173Z,1.67
2019-05-28T17:34:21.678Z,1.73
2019-05-28T17:36:50.158Z,2.13
2019-05-28T17:39:18.622Z,2.00
2019-05-28T17:41:47.130Z,2.93
2019-05-28T17:44:15.609Z,1.83
2019-05-28T17:46:44.098Z,2.77
2019-05-28T17:49:12.607Z,4.83
2019-05-28T17:51:41.119Z,2.73
2019-05-28T17:54:09.619Z,1.20
2019-05-28T17:56:38.120Z,1.17
2019-05-28T17:59:06.701Z,2.33
2019-05-28T18:01:35.261Z,2.73
2019-05-28T18:04:03.789Z,1.20
2019-05-28T18:06:32.259Z,1.30
2019-05-28T18:09:00.766Z,1.60
2019-05-28T18:11:29.291Z,1.00
2019-05-28T18:13:57.783Z,1.97
2019-05-28T18:16:26.360Z,6.17
2019-05-28T18:18:54.819Z,4.23
2019-05-28T18:21:23.316Z,2.67
2019-05-28T18:23:51.818Z,2.33
2019-05-28T18:26:20.288Z,2.73
2019-05-28T18:28:48.778Z,1.80
2019-05-28T18:31:17.286Z,1.20
2019-05-28T18:33:45.783Z,3.10
2019-05-28T18:36:14.284Z,1.13
2019-05-28T18:38:44.021Z,1.10
2019-05-28T18:41:21.470Z,1.20
2019-05-28T18:43:42.775Z,1.20
2019-05-28T18:46:15.276Z,1.30
2019-05-28T18:48:41.518Z,1.10
2019-05-28T18:51:10.027Z,2.63
2019-05-28T18:53:38.602Z,2.30
2019-05-28T18:56:16.969Z,1.10
2019-05-28T18:58:37.371Z,1.30
2019-05-28T19:01:05.929Z,2.33
2019-05-28T19:03:34.414Z,4.57
2019-05-28T19:06:02.940Z,5.90
2019-05-28T19:08:31.424Z,2.20
2019-05-28T19:10:59.948Z,2.27
2019-05-28T19:13:28.472Z,1.33
2019-05-28T19:15:56.975Z,1.27
2019-05-28T19:18:25.471Z,2.53
2019-05-28T19:20:53.978Z,2.93
2019-05-28T19:23:22.515Z,1.80
2019-05-28T19:25:51.205Z,3.87
2019-05-28T19:28:19.723Z,1.70
2019-05-28T19:30:50.511Z,1.47
2019-05-28T19:33:18.688Z,1.93
2019-05-28T19:35:48.549Z,1.73
2019-05-28T19:38:18.197Z,3.00
2019-05-28T19:40:46.683Z,4.40
2019-05-28T19:43:15.193Z,2.20
2019-05-28T19:45:43.694Z,1.63
2019-05-28T19:48:12.197Z,3.97
2019-05-28T19:50:40.706Z,2.37
2019-05-28T19:53:09.344Z,2.03
2019-05-28T19:55:37.931Z,3.50
2019-05-28T19:58:06.540Z,3.97
2019-05-28T20:00:35.102Z,2.10
2019-05-28T20:03:03.607Z,2.27
2019-05-28T20:05:32.118Z,3.47
2019-05-28T20:08:00.614Z,2.47
2019-05-28T20:10:29.264Z,5.07
2019-05-28T20:12:57.821Z,2.73
2019-05-28T20:15:27.249Z,2.20
2019-05-28T20:17:56.732Z,2.63
2019-05-28T20:20:25.479Z,2.40
2019-05-28T20:22:54.120Z,2.00
2019-05-28T20:25:22.558Z,1.40
2019-05-28T20:27:51.902Z,1.50
2019-05-28T20:30:22.388Z,3.53
2019-05-28T20:32:50.923Z,1.70
2019-05-28T20:35:19.581Z,3.83
2019-05-28T20:37:48.097Z,3.37
2019-05-28T20:40:16.834Z,1.90
2019-05-28T20:42:45.340Z,2.40
2019-05-28T20:45:14.435Z,1.47
2019-05-28T20:47:43.029Z,2.27
2019-05-28T20:50:12.026Z,2.57
2019-05-28T20:52:40.603Z,2.73
2019-05-28T20:55:10.626Z,2.50
2019-05-28T20:57:39.190Z,2.53
2019-05-28T21:00:09.924Z,3.50
2019-05-28T21:02:38.414Z,3.10
2019-05-28T21:05:08.632Z,2.67
2019-05-28T21:07:37.209Z,2.20
2019-05-28T21:10:09.416Z,5.40
2019-05-28T21:12:43.761Z,3.13
2019-05-28T21:15:09.586Z,2.17
2019-05-28T21:17:38.068Z,1.90
2019-05-28T21:20:10.517Z,3.37
2019-05-28T21:22:39.041Z,3.70
2019-05-28T21:25:08.069Z,2.60
2019-05-28T21:27:36.590Z,2.60
2019-05-28T21:30:07.500Z,2.70
2019-05-28T21:32:36.022Z,2.13
2019-05-28T21:35:05.962Z,2.47
2019-05-28T21:37:34.516Z,5.53
2019-05-28T21:40:03.073Z,2.33
2019-05-28T21:42:31.579Z,3.73
2019-05-28T21:45:00.219Z,3.47
2019-05-28T21:47:28.785Z,2.97
2019-05-28T21:49:58.955Z,2.17
2019-05-28T21:52:27.486Z,4.23
2019-05-28T21:54:57.182Z,2.03
2019-05-28T21:57:25.764Z,1.73
2019-05-28T21:59:54.244Z,3.03
2019-05-28T22:02:22.887Z,3.30
2019-05-28T22:04:51.396Z,3.43
2019-05-28T22:07:19.967Z,4.97
2019-05-28T22:09:48.472Z,2.57
2019-05-28T22:12:16.967Z,2.70
2019-05-28T22:14:45.417Z,3.40
2019-05-28T22:17:13.927Z,2.20
2019-05-28T22:19:42.605Z,2.27
2019-05-28T22:22:11.063Z,2.33
2019-05-28T22:24:39.562Z,1.80
2019-05-28T22:27:08.751Z,1.80
2019-05-28T22:29:37.304Z,2.17
2019-05-28T22:32:06.977Z,4.00
2019-05-28T22:34:35.573Z,2.67
2019-05-28T22:37:04.495Z,2.70
2019-05-28T22:39:33.024Z,3.10
2019-05-28T22:42:01.675Z,4.13
2019-05-28T22:44:30.188Z,1.70
2019-05-28T22:46:59.089Z,1.97
2019-05-28T22:49:27.658Z,5.00
2019-05-28T22:51:56.213Z,3.57
2019-05-28T22:54:24.776Z,2.33
2019-05-28T22:56:53.287Z,3.47
2019-05-28T22:59:21.816Z,3.13
2019-05-28T23:01:50.319Z,2.10
2019-05-28T23:04:18.822Z,1.67
2019-05-28T23:06:47.341Z,2.10
2019-05-28T23:09:15.895Z,3.30
2019-05-28T23:11:44.447Z,3.30
2019-05-28T23:14:12.968Z,1.73
2019-05-28T23:16:41.456Z,2.77
2019-05-28T23:19:10.903Z,1.70
2019-05-28T23:21:39.495Z,1.60
2019-05-28T23:24:09.249Z,3.50
2019-05-28T23:26:37.846Z,2.10
2019-05-28T23:29:06.405Z,2.30
2019-05-28T23:31:34.903Z,1.80
2019-05-28T23:34:04.308Z,2.27
2019-05-28T23:36:32.817Z,2.97
2019-05-28T23:39:01.313Z,2.30
2019-05-28T23:41:29.805Z,1.77
2019-05-28T23:44:01.866Z,2.60
2019-05-28T23:46:28.552Z,2.13
2019-05-28T23:48:57.045Z,3.40
2019-05-28T23:51:25.564Z,2.23
2019-05-28T23:53:54.058Z,1.90
2019-05-28T23:56:22.577Z,3.47
2019-05-28T23:58:51.059Z,2.37
